Time,TemperatureF,DewpointF,PressureIn,WindDirection,WindDirectionDegrees,WindSpeedMPH,WindSpeedGustMPH,Humidity,HourlyPrecipIn,Conditions,Clouds,dailyrainin,SoftwareType,DateUTC
2013-01-28 00:00:00,58.0,56.3,29.89,SSE,148,0.0,2.0,94,0.00,,---,0.00,VWS V14.00,2013-01-28 06:00:00,
2013-01-28 00:02:00,58.0,56.3,29.89,SSE,160,4.0,6.0,94,0.00,,---,0.00,VWS V14.00,2013-01-28 06:02:00,
2013-01-28 00:03:00,58.0,56.3,29.89,SSE,150,0.0,6.0,94,0.00,,---,0.01,VWS V14.00,2013-01-28 06:03:00,
2013-01-28 00:06:00,58.0,56.3,29.89,SE,136,3.0,7.0,94,0.00,,---,0.00,VWS V14.00,2013-01-28 06:06:00,
2013-01-28 00:07:00,58.0,56.3,29.89,South,169,0.0,4.0,94,0.00,,---,0.00,VWS V14.00,2013-01-28 06:07:00,
2013-01-28 00:09:00,58.0,56.3,29.89,ESE,115,0.0,3.0,94,0.00,,---,0.00,VWS V14.00,2013-01-28 06:09:00,
2013-01-28 00:11:00,58.0,56.3,29.89,SSE,148,3.0,5.0,94,0.00,,---,0.00,VWS V14.00,2013-01-28 06:11:00,
2013-01-28 00:12:00,58.0,56.3,29.89,SSE,166,0.0,1.0,94,0.00,,---,0.00,VWS V14.00,2013-01-28 06:12:00,
2013-01-28 00:13:00,58.0,56.3,29.89,SSE,158,0.0,0.0,94,0.00,,---,0.00,VWS V14.00,2013-01-28 06:13:00,
2013-01-28 00:14:00,58.1,56.4,29.89,SE,144,0.0,5.0,94,0.00,,---,0.00,VWS V14.00,2013-01-28 06:14:00,
2013-01-28 00:15:00,58.1,56.4,29.89,SE,143,0.0,6.0,94,0.00,,---,0.00,VWS V14.00,2013-01-28 06:15:00,
2013-01-28 00:17:00,58.1,56.4,29.89,ESE,113,4.0,4.0,94,0.00,,---,0.00,VWS V14.00,2013-01-28 06:17:00,
2013-01-28 00:18:00,58.1,56.4,29.89,SSE,162,0.0,0.0,94,0.00,,---,0.00,VWS V14.00,2013-01-28 06:18:00,
2013-01-28 00:20:00,58.1,56.4,29.89,SE,139,3.0,5.0,94,0.00,,---,0.00,VWS V14.00,2013-01-28 06:20:00,
2013-01-28 00:23:00,58.2,56.5,29.89,SSE,157,0.0,0.0,94,0.00,,---,0.00,VWS V14.00,2013-01-28 06:23:00,
2013-01-28 00:24:00,58.2,56.5,29.89,SSE,155,0.0,0.0,94,0.00,,---,0.00,VWS V14.00,2013-01-28 06:24:00,
2013-01-28 00:25:00,58.2,56.2,29.89,SSE,153,0.0,5.0,93,0.00,,---,0.00,VWS V14.00,2013-01-28 06:25:00,
2013-01-28 00:26:00,58.1,56.4,29.89,SE,143,0.0,0.0,94,0.00,,---,0.00,VWS V14.00,2013-01-28 06:26:00,
2013-01-28 00:28:00,58.3,56.3,29.89,SSE,150,0.0,4.0,93,0.00,,---,0.00,VWS V14.00,2013-01-28 06:28:00,
2013-01-28 00:30:00,58.3,56.3,29.88,SE,129,2.0,9.0,93,0.00,,---,0.00,VWS V14.00,2013-01-28 06:30:00,
2013-01-28 00:32:00,58.2,56.5,29.89,SSE,159,0.0,0.0,94,0.00,,---,0.00,VWS V14.00,2013-01-28 06:32:00,
2013-01-28 00:37:00,58.2,56.2,29.89,SSE,152,0.0,0.0,93,0.00,,---,0.00,VWS V14.00,2013-01-28 06:37:00,
2013-01-28 00:38:00,58.4,56.4,29.88,SSE,160,0.0,0.0,93,0.00,,---,0.00,VWS V14.00,2013-01-28 06:38:00,
2013-01-28 00:42:00,58.3,56.3,29.88,SE,129,3.0,5.0,93,0.00,,---,0.00,VWS V14.00,2013-01-28 06:42:00,
2013-01-28 00:46:00,58.5,56.5,29.88,SSE,149,0.0,0.0,93,0.00,,---,0.00,VWS V14.00,2013-01-28 06:46:00,
2013-01-28 00:47:00,58.4,56.4,29.88,SSE,161,0.0,1.0,93,0.00,,---,0.00,VWS V14.00,2013-01-28 06:47:00,
2013-01-28 00:53:00,58.5,56.5,29.88,SSE,163,0.0,0.0,93,0.00,,---,0.00,VWS V14.00,2013-01-28 06:53:00,
2013-01-28 00:58:00,58.6,56.6,29.88,South,176,0.0,5.0,93,0.00,,---,0.00,VWS V14.00,2013-01-28 06:58:00,
2013-01-28 01:01:00,58.9,56.9,29.88,ESE,121,5.0,6.0,93,0.00,,---,0.00,VWS V14.00,2013-01-28 07:01:00,
2013-01-28 01:03:00,58.7,56.7,29.88,SE,136,0.0,0.0,93,0.00,,---,0.00,VWS V14.00,2013-01-28 07:03:00,
2013-01-28 01:08:00,58.8,56.8,29.88,SSE,150,0.0,2.0,93,0.00,,---,0.00,VWS V14.00,2013-01-28 07:08:00,
2013-01-28 01:14:00,59.0,57.0,29.88,SE,137,1.0,5.0,93,0.00,,---,0.00,VWS V14.00,2013-01-28 07:14:00,
2013-01-28 01:20:00,59.1,57.1,29.88,SSE,148,0.0,5.0,93,0.00,,---,0.00,VWS V14.00,2013-01-28 07:20:00,
2013-01-28 01:23:00,59.4,57.4,29.88,SSE,153,0.0,0.0,93,0.00,,---,0.00,VWS V14.00,2013-01-28 07:23:00,
2013-01-28 01:25:00,59.2,57.2,29.88,SSE,167,0.0,0.0,93,0.00,,---,0.00,VWS V14.00,2013-01-28 07:25:00,
2013-01-28 01:26:00,59.5,57.5,29.88,SSE,153,0.0,0.0,93,0.00,,---,0.00,VWS V14.00,2013-01-28 07:26:00,
2013-01-28 01:30:00,59.3,57.3,29.88,SSE,159,0.0,0.0,93,0.00,,---,0.00,VWS V14.00,2013-01-28 07:30:00,
2013-01-28 01:35:00,59.5,57.5,29.88,SSE,153,0.0,0.0,93,0.00,,---,0.00,VWS V14.00,2013-01-28 07:35:00,
2013-01-28 01:40:00,59.6,57.6,29.88,SE,127,2.0,4.0,93,0.00,,---,0.00,VWS V14.00,2013-01-28 07:40:00,
2013-01-28 01:45:00,59.8,57.8,29.88,SE,141,0.0,0.0,93,0.00,,---,0.00,VWS V14.00,2013-01-28 07:45:00,
2013-01-28 01:50:00,60.0,58.0,29.88,SSE,161,3.0,4.0,93,0.00,,---,0.00,VWS V14.00,2013-01-28 07:50:00,
2013-01-28 01:56:00,60.2,57.9,29.88,South,171,0.0,1.0,92,0.00,,---,0.00,VWS V14.00,2013-01-28 07:56:00,
2013-01-28 02:01:00,60.4,58.4,29.88,SSE,165,0.0,0.0,93,0.00,,---,0.00,VWS V14.00,2013-01-28 08:01:00,
2013-01-28 02:06:00,60.6,58.6,29.88,SE,131,5.0,5.0,93,0.00,,---,0.00,VWS V14.00,2013-01-28 08:06:00,
2013-01-28 02:11:00,60.9,58.6,29.88,South,175,0.0,3.0,92,0.00,,---,0.00,VWS V14.00,2013-01-28 08:11:00,
2013-01-28 02:16:00,61.2,58.9,29.88,SSW,192,0.0,3.0,92,0.00,,---,0.00,VWS V14.00,2013-01-28 08:16:00,
2013-01-28 02:22:00,61.5,59.2,29.88,South,184,0.0,0.0,92,0.00,,---,0.00,VWS V14.00,2013-01-28 08:22:00,
2013-01-28 02:28:00,61.6,59.3,29.88,SSE,148,0.0,0.0,92,0.00,,---,0.00,VWS V14.00,2013-01-28 08:28:00,
2013-01-28 02:33:00,61.7,59.4,29.88,SE,146,0.0,0.0,92,0.00,,---,0.00,VWS V14.00,2013-01-28 08:33:00,
2013-01-28 02:39:00,62.0,59.7,29.88,SE,143,0.0,3.0,92,0.00,,---,0.00,VWS V14.00,2013-01-28 08:39:00,
2013-01-28 02:44:00,62.4,60.0,29.88,South,185,0.0,0.0,92,0.00,,---,0.00,VWS V14.00,2013-01-28 08:44:00,
2013-01-28 02:49:00,63.3,60.9,29.88,South,178,1.0,7.0,92,0.00,,---,0.00,VWS V14.00,2013-01-28 08:49:00,
2013-01-28 02:54:00,64.3,61.3,29.88,South,169,5.0,6.0,90,0.00,,---,0.00,VWS V14.00,2013-01-28 08:54:00,
2013-01-28 02:59:00,64.9,61.6,29.88,South,186,2.0,7.0,89,0.00,,---,0.00,VWS V14.00,2013-01-28 08:59:00,
2013-01-28 03:04:00,65.2,61.6,29.88,South,169,7.0,7.0,88,0.00,,---,0.00,VWS V14.00,2013-01-28 09:04:00,
2013-01-28 03:10:00,65.5,61.9,29.88,SSW,193,4.0,11.0,88,0.00,,---,0.00,VWS V14.00,2013-01-28 09:10:00,
2013-01-28 03:15:00,65.8,61.8,29.88,South,172,0.0,10.0,87,0.00,,---,0.00,VWS V14.00,2013-01-28 09:15:00,
2013-01-28 03:20:00,65.9,61.9,29.88,SSW,197,3.0,10.0,87,0.00,,---,0.00,VWS V14.00,2013-01-28 09:20:00,
2013-01-28 03:25:00,66.1,62.1,29.87,SSE,159,1.0,10.0,87,0.00,,---,0.00,VWS V14.00,2013-01-28 09:25:00,
2013-01-28 03:30:00,66.0,62.0,29.87,South,189,3.0,11.0,87,0.00,,---,0.00,VWS V14.00,2013-01-28 09:30:00,
2013-01-28 03:35:00,66.1,62.1,29.87,SSW,205,6.0,14.0,87,0.00,,---,0.00,VWS V14.00,2013-01-28 09:35:00,
2013-01-28 03:40:00,66.2,61.9,29.88,South,178,11.0,11.0,86,0.00,,---,0.00,VWS V14.00,2013-01-28 09:40:00,
2013-01-28 03:45:00,66.3,62.0,29.88,SSW,194,4.0,6.0,86,0.00,,---,0.00,VWS V14.00,2013-01-28 09:45:00,
2013-01-28 03:51:00,66.3,62.3,29.88,SSW,198,7.0,11.0,87,0.00,,---,0.00,VWS V14.00,2013-01-28 09:51:00,
2013-01-28 03:56:00,66.3,62.0,29.87,SSE,166,6.0,7.0,86,0.00,,---,0.00,VWS V14.00,2013-01-28 09:56:00,
2013-01-28 04:01:00,66.3,62.0,29.87,South,174,7.0,10.0,86,0.00,,---,0.00,VWS V14.00,2013-01-28 10:01:00,
2013-01-28 04:06:00,66.3,62.0,29.87,South,191,6.0,13.0,86,0.00,,---,0.00,VWS V14.00,2013-01-28 10:06:00,
2013-01-28 04:11:00,66.3,62.0,29.87,SE,128,4.0,11.0,86,0.00,,---,0.00,VWS V14.00,2013-01-28 10:11:00,
2013-01-28 04:16:00,66.3,62.0,29.87,South,175,0.0,9.0,86,0.00,,---,0.00,VWS V14.00,2013-01-28 10:16:00,
2013-01-28 04:21:00,66.3,62.0,29.87,SSW,212,9.0,11.0,86,0.00,,---,0.00,VWS V14.00,2013-01-28 10:21:00,
2013-01-28 04:26:00,66.2,61.9,29.87,South,181,4.0,13.0,86,0.00,,---,0.00,VWS V14.00,2013-01-28 10:26:00,
2013-01-28 04:31:00,66.2,61.9,29.87,SSE,147,12.0,13.0,86,0.00,,---,0.00,VWS V14.00,2013-01-28 10:31:00,
2013-01-28 04:36:00,66.2,61.9,29.87,South,180,0.0,5.0,86,0.00,,---,0.00,VWS V14.00,2013-01-28 10:36:00,
2013-01-28 04:42:00,66.1,62.1,29.88,South,172,3.0,8.0,87,0.00,,---,0.00,VWS V14.00,2013-01-28 10:42:00,
2013-01-28 04:47:00,66.1,62.1,29.88,South,172,3.0,9.0,87,0.00,,---,0.00,VWS V14.00,2013-01-28 10:47:00,
2013-01-28 04:52:00,66.0,62.0,29.88,SSW,198,7.0,10.0,87,0.00,,---,0.00,VWS V14.00,2013-01-28 10:52:00,
2013-01-28 04:58:00,65.9,61.9,29.88,South,187,9.0,10.0,87,0.00,,---,0.00,VWS V14.00,2013-01-28 10:58:00,
2013-01-28 05:03:00,65.8,62.2,29.88,South,190,9.0,9.0,88,0.00,,---,0.00,VWS V14.00,2013-01-28 11:03:00,
2013-01-28 05:08:00,65.8,62.2,29.88,South,183,9.0,12.0,88,0.00,,---,0.00,VWS V14.00,2013-01-28 11:08:00,
2013-01-28 05:13:00,65.7,62.0,29.87,SSW,212,8.0,11.0,88,0.00,,---,0.00,VWS V14.00,2013-01-28 11:13:00,
2013-01-28 05:18:00,65.8,62.2,29.87,SW,220,3.0,20.0,88,0.00,,---,0.00,VWS V14.00,2013-01-28 11:18:00,
2013-01-28 05:23:00,65.6,62.0,29.87,South,190,1.0,10.0,88,0.00,,---,0.00,VWS V14.00,2013-01-28 11:23:00,
2013-01-28 05:29:00,65.5,61.9,29.87,South,178,0.0,5.0,88,0.00,,---,0.00,VWS V14.00,2013-01-28 11:29:00,
2013-01-28 05:35:00,65.5,62.2,29.87,South,182,6.0,15.0,89,0.00,,---,0.00,VWS V14.00,2013-01-28 11:35:00,
2013-01-28 05:40:00,65.4,62.1,29.88,South,186,10.0,12.0,89,0.00,,---,0.00,VWS V14.00,2013-01-28 11:40:00,
2013-01-28 05:45:00,65.4,62.1,29.88,South,180,9.0,11.0,89,0.00,,---,0.00,VWS V14.00,2013-01-28 11:45:00,
2013-01-28 05:50:00,65.3,62.0,29.88,South,172,6.0,13.0,89,0.00,,---,0.00,VWS V14.00,2013-01-28 11:50:00,
2013-01-28 05:55:00,65.2,61.9,29.88,SSW,193,2.0,19.0,89,0.00,,---,0.00,VWS V14.00,2013-01-28 11:55:00,
2013-01-28 06:00:00,65.2,61.9,29.88,South,178,5.0,9.0,89,0.00,,---,0.00,VWS V14.00,2013-01-28 12:00:00,
2013-01-28 06:06:00,65.2,61.9,29.88,South,189,5.0,16.0,89,0.00,,---,0.00,VWS V14.00,2013-01-28 12:06:00,
2013-01-28 06:12:00,65.1,61.8,29.88,South,186,8.0,9.0,89,0.00,,---,0.00,VWS V14.00,2013-01-28 12:12:00,
2013-01-28 06:18:00,65.0,61.7,29.88,South,185,11.0,19.0,89,0.00,,---,0.00,VWS V14.00,2013-01-28 12:18:00,
2013-01-28 06:23:00,65.0,61.7,29.88,SSE,165,6.0,11.0,89,0.00,,---,0.00,VWS V14.00,2013-01-28 12:23:00,
2013-01-28 06:28:00,65.0,61.7,29.88,SSW,198,6.0,11.0,89,0.00,,---,0.00,VWS V14.00,2013-01-28 12:28:00,
2013-01-28 06:34:00,65.0,62.0,29.88,SSE,155,6.0,9.0,90,0.00,,---,0.00,VWS V14.00,2013-01-28 12:34:00,
2013-01-28 06:40:00,65.1,61.8,29.88,South,172,6.0,11.0,89,0.00,,---,0.00,VWS V14.00,2013-01-28 12:40:00,
2013-01-28 06:45:00,65.2,61.9,29.88,SSE,168,5.0,9.0,89,0.00,,---,0.00,VWS V14.00,2013-01-28 12:45:00,
2013-01-28 06:50:00,65.1,61.8,29.88,SSE,150,0.0,7.0,89,0.00,,---,0.00,VWS V14.00,2013-01-28 12:50:00,
2013-01-28 06:55:00,65.2,62.2,29.89,South,172,4.0,10.0,90,0.00,,---,0.00,VWS V14.00,2013-01-28 12:55:00,
2013-01-28 07:00:00,65.3,62.0,29.89,South,169,4.0,13.0,89,0.00,,---,0.00,VWS V14.00,2013-01-28 13:00:00,
2013-01-28 07:05:00,65.3,62.0,29.89,South,176,7.0,13.0,89,0.00,,---,0.00,VWS V14.00,2013-01-28 13:05:00,
2013-01-28 07:10:00,65.2,61.9,29.90,SSE,155,7.0,11.0,89,0.00,,---,0.00,VWS V14.00,2013-01-28 13:10:00,
2013-01-28 07:15:00,65.3,62.0,29.90,SE,131,5.0,10.0,89,0.00,,---,0.00,VWS V14.00,2013-01-28 13:15:00,
2013-01-28 07:20:00,65.4,62.1,29.90,South,175,4.0,12.0,89,0.00,,---,0.00,VWS V14.00,2013-01-28 13:20:00,
2013-01-28 07:25:00,65.4,62.1,29.90,SSW,195,4.0,12.0,89,0.00,,---,0.00,VWS V14.00,2013-01-28 13:25:00,
2013-01-28 07:30:00,65.3,62.0,29.90,SSW,198,10.0,10.0,89,0.00,,---,0.00,VWS V14.00,2013-01-28 13:30:00,
2013-01-28 07:35:00,65.4,62.1,29.90,South,175,9.0,11.0,89,0.00,,---,0.00,VWS V14.00,2013-01-28 13:35:00,
2013-01-28 07:41:00,65.3,62.0,29.90,SE,141,5.0,8.0,89,0.00,,---,0.00,VWS V14.00,2013-01-28 13:41:00,
2013-01-28 07:46:00,65.3,62.0,29.90,SSW,192,0.0,9.0,89,0.00,,---,0.00,VWS V14.00,2013-01-28 13:46:00,
2013-01-28 07:51:00,65.3,62.0,29.90,South,175,0.0,2.0,89,0.00,,---,0.00,VWS V14.00,2013-01-28 13:51:00,
2013-01-28 07:56:00,65.4,62.4,29.90,SSW,205,5.0,7.0,90,0.00,,---,0.00,VWS V14.00,2013-01-28 13:56:00,
2013-01-28 08:02:00,65.5,62.2,29.90,South,189,6.0,6.0,89,0.00,,---,0.00,VWS V14.00,2013-01-28 14:02:00,
2013-01-28 08:07:00,65.6,62.3,29.90,South,176,5.0,6.0,89,0.00,,---,0.00,VWS V14.00,2013-01-28 14:07:00,
2013-01-28 08:13:00,65.8,62.5,29.90,SSE,166,5.0,9.0,89,0.00,,---,0.00,VWS V14.00,2013-01-28 14:13:00,
2013-01-28 08:18:00,66.0,62.7,29.90,SSW,200,9.0,10.0,89,0.00,,---,0.00,VWS V14.00,2013-01-28 14:18:00,
2013-01-28 08:24:00,66.3,62.6,29.90,SSW,195,0.0,11.0,88,0.00,,---,0.00,VWS V14.00,2013-01-28 14:24:00,
2013-01-28 08:29:00,66.5,62.8,29.91,South,182,0.0,13.0,88,0.00,,---,0.00,VWS V14.00,2013-01-28 14:29:00,
2013-01-28 08:34:00,66.8,63.1,29.91,SSE,157,7.0,8.0,88,0.00,,---,0.00,VWS V14.00,2013-01-28 14:34:00,
2013-01-28 08:40:00,67.1,63.1,29.91,SSE,158,13.0,15.0,87,0.00,,---,0.00,VWS V14.00,2013-01-28 14:40:00,
2013-01-28 08:45:00,67.2,63.2,29.91,SSE,167,9.0,15.0,87,0.00,,---,0.00,VWS V14.00,2013-01-28 14:45:00,
2013-01-28 08:50:00,67.3,63.0,29.91,South,179,4.0,14.0,86,0.00,,---,0.00,VWS V14.00,2013-01-28 14:50:00,
2013-01-28 08:56:00,67.5,63.2,29.91,South,177,12.0,12.0,86,0.00,,---,0.00,VWS V14.00,2013-01-28 14:56:00,
2013-01-28 09:01:00,67.7,63.4,29.91,SE,143,4.0,10.0,86,0.00,,---,0.00,VWS V14.00,2013-01-28 15:01:00,
2013-01-28 09:06:00,67.8,63.1,29.91,SW,214,12.0,15.0,85,0.00,,---,0.00,VWS V14.00,2013-01-28 15:06:00,
2013-01-28 09:11:00,67.8,63.1,29.92,SSW,193,2.0,12.0,85,0.00,,---,0.00,VWS V14.00,2013-01-28 15:11:00,
2013-01-28 09:16:00,67.8,63.1,29.92,South,191,4.0,11.0,85,0.00,,---,0.00,VWS V14.00,2013-01-28 15:16:00,
2013-01-28 09:21:00,67.9,63.2,29.92,SSE,167,12.0,18.0,85,0.00,,---,0.00,VWS V14.00,2013-01-28 15:21:00,
2013-01-28 09:26:00,68.1,63.4,29.91,SSW,194,0.0,10.0,85,0.00,,---,0.00,VWS V14.00,2013-01-28 15:26:00,
2013-01-28 09:31:00,68.2,63.2,29.91,SSE,160,5.0,10.0,84,0.00,,---,0.00,VWS V14.00,2013-01-28 15:31:00,
2013-01-28 09:37:00,68.3,63.3,29.91,South,180,3.0,11.0,84,0.00,,---,0.00,VWS V14.00,2013-01-28 15:37:00,
2013-01-28 09:42:00,68.4,63.4,29.92,South,175,12.0,13.0,84,0.00,,---,0.00,VWS V14.00,2013-01-28 15:42:00,
2013-01-28 09:47:00,68.5,63.5,29.92,South,177,13.0,16.0,84,0.00,,---,0.00,VWS V14.00,2013-01-28 15:47:00,
2013-01-28 09:52:00,68.4,63.4,29.92,SSW,203,9.0,16.0,84,0.00,,---,0.00,VWS V14.00,2013-01-28 15:52:00,
2013-01-28 09:57:00,68.5,63.5,29.92,South,184,8.0,13.0,84,0.00,,---,0.00,VWS V14.00,2013-01-28 15:57:00,
2013-01-28 10:03:00,68.6,63.2,29.92,SSE,153,5.0,12.0,83,0.00,,---,0.00,VWS V14.00,2013-01-28 16:03:00,
2013-01-28 10:08:00,68.6,63.2,29.92,SSW,198,10.0,18.0,83,0.00,,---,0.00,VWS V14.00,2013-01-28 16:08:00,
2013-01-28 10:13:00,68.7,63.3,29.92,SSW,203,6.0,15.0,83,0.00,,---,0.00,VWS V14.00,2013-01-28 16:13:00,
2013-01-28 10:19:00,68.9,63.5,29.92,South,189,6.0,12.0,83,0.00,,---,0.00,VWS V14.00,2013-01-28 16:19:00,
2013-01-28 10:24:00,69.0,63.3,29.92,SSW,199,5.0,10.0,82,0.00,,---,0.00,VWS V14.00,2013-01-28 16:24:00,
2013-01-28 10:29:00,69.1,63.4,29.92,SSW,192,13.0,13.0,82,0.00,,---,0.00,VWS V14.00,2013-01-28 16:29:00,
2013-01-28 10:34:00,69.1,63.4,29.92,SSE,160,9.0,13.0,82,0.00,,---,0.00,VWS V14.00,2013-01-28 16:34:00,
2013-01-28 10:39:00,69.1,63.4,29.92,SSE,164,1.0,15.0,82,0.00,,---,0.00,VWS V14.00,2013-01-28 16:39:00,
2013-01-28 10:44:00,69.2,63.5,29.92,SSE,165,7.0,19.0,82,0.00,,---,0.00,VWS V14.00,2013-01-28 16:44:00,
2013-01-28 10:49:00,69.5,63.4,29.92,South,178,4.0,13.0,81,0.00,,---,0.00,VWS V14.00,2013-01-28 16:49:00,
2013-01-28 10:54:00,69.9,63.8,29.92,South,179,6.0,10.0,81,0.00,,---,0.00,VWS V14.00,2013-01-28 16:54:00,
2013-01-28 10:59:00,70.2,63.4,29.92,SSW,200,6.0,22.0,79,0.00,,---,0.00,VWS V14.00,2013-01-28 16:59:00,
2013-01-28 11:04:00,70.3,63.5,29.92,SE,140,7.0,14.0,79,0.00,,---,0.00,VWS V14.00,2013-01-28 17:04:00,
2013-01-28 11:09:00,70.2,63.4,29.92,SSE,163,15.0,17.0,79,0.00,,---,0.00,VWS V14.00,2013-01-28 17:09:00,
2013-01-28 11:14:00,70.1,63.3,29.92,SSW,198,9.0,14.0,79,0.00,,---,0.00,VWS V14.00,2013-01-28 17:14:00,
2013-01-28 11:19:00,70.2,63.4,29.92,ESE,108,5.0,11.0,79,0.00,,---,0.00,VWS V14.00,2013-01-28 17:19:00,
2013-01-28 11:25:00,70.3,63.5,29.92,SSW,203,6.0,10.0,79,0.00,,---,0.00,VWS V14.00,2013-01-28 17:25:00,
2013-01-28 11:30:00,70.3,63.1,29.92,South,177,0.0,15.0,78,0.00,,---,0.00,VWS V14.00,2013-01-28 17:30:00,
2013-01-28 11:36:00,70.4,63.6,29.92,South,171,5.0,14.0,79,0.00,,---,0.00,VWS V14.00,2013-01-28 17:36:00,
2013-01-28 11:41:00,70.4,63.2,29.91,SSW,202,5.0,11.0,78,0.00,,---,0.00,VWS V14.00,2013-01-28 17:41:00,
2013-01-28 11:46:00,70.5,63.3,29.91,SSE,167,0.0,8.0,78,0.00,,---,0.00,VWS V14.00,2013-01-28 17:46:00,
2013-01-28 11:51:00,70.7,63.5,29.91,SSW,198,0.0,11.0,78,0.00,,---,0.00,VWS V14.00,2013-01-28 17:51:00,
2013-01-28 11:56:00,71.0,63.8,29.90,ESE,122,5.0,12.0,78,0.00,,---,0.00,VWS V14.00,2013-01-28 17:56:00,
2013-01-28 12:01:00,71.1,63.5,29.90,SSE,155,8.0,16.0,77,0.00,,---,0.00,VWS V14.00,2013-01-28 18:01:00,
2013-01-28 12:06:00,71.3,63.3,29.90,South,171,4.0,12.0,76,0.00,,---,0.00,VWS V14.00,2013-01-28 18:06:00,
2013-01-28 12:11:00,71.7,63.4,29.89,SE,143,7.0,14.0,75,0.00,,---,0.00,VWS V14.00,2013-01-28 18:11:00,
2013-01-28 12:17:00,71.7,63.4,29.89,SE,133,6.0,9.0,75,0.00,,---,0.00,VWS V14.00,2013-01-28 18:17:00,
2013-01-28 12:22:00,71.7,63.4,29.89,SE,132,9.0,13.0,75,0.00,,---,0.00,VWS V14.00,2013-01-28 18:22:00,
2013-01-28 12:27:00,71.5,63.2,29.88,SSE,167,0.0,5.0,75,0.00,,---,0.00,VWS V14.00,2013-01-28 18:27:00,
2013-01-28 12:32:00,71.6,63.3,29.88,ESE,111,10.0,16.0,75,0.00,,---,0.00,VWS V14.00,2013-01-28 18:32:00,
2013-01-28 12:37:00,71.7,63.0,29.88,South,179,6.0,13.0,74,0.00,,---,0.00,VWS V14.00,2013-01-28 18:37:00,
2013-01-28 12:42:00,71.8,63.1,29.87,South,172,1.0,16.0,74,0.00,,---,0.00,VWS V14.00,2013-01-28 18:42:00,
2013-01-28 12:47:00,72.1,63.4,29.87,SSE,153,6.0,17.0,74,0.00,,---,0.00,VWS V14.00,2013-01-28 18:47:00,
2013-01-28 12:52:00,72.5,63.4,29.87,SE,129,16.0,16.0,73,0.00,,---,0.00,VWS V14.00,2013-01-28 18:52:00,
2013-01-28 12:57:00,72.6,63.1,29.85,SE,140,17.0,18.0,72,0.00,,---,0.00,VWS V14.00,2013-01-28 18:57:00,
2013-01-28 13:02:00,72.4,62.9,29.85,SSW,211,9.0,9.0,72,0.00,,---,0.00,VWS V14.00,2013-01-28 19:02:00,
2013-01-28 13:07:00,72.1,63.0,29.85,South,179,0.0,9.0,73,0.00,,---,0.00,VWS V14.00,2013-01-28 19:07:00,
2013-01-28 13:12:00,71.9,62.8,29.85,SSE,148,5.0,14.0,73,0.00,,---,0.00,VWS V14.00,2013-01-28 19:12:00,
2013-01-28 13:17:00,71.7,63.0,29.85,South,184,1.0,11.0,74,0.00,,---,0.00,VWS V14.00,2013-01-28 19:17:00,
2013-01-28 13:22:00,71.9,63.2,29.85,SSW,200,13.0,19.0,74,0.00,,---,0.00,VWS V14.00,2013-01-28 19:22:00,
2013-01-28 13:27:00,72.1,63.0,29.84,SSE,159,9.0,14.0,73,0.00,,---,0.00,VWS V14.00,2013-01-28 19:27:00,
2013-01-28 13:32:00,72.2,63.1,29.84,SSE,158,0.0,12.0,73,0.00,,---,0.00,VWS V14.00,2013-01-28 19:32:00,
2013-01-28 13:37:00,72.3,62.8,29.84,SSE,150,4.0,18.0,72,0.00,,---,0.00,VWS V14.00,2013-01-28 19:37:00,
2013-01-28 13:42:00,72.4,62.9,29.83,SSE,168,0.0,11.0,72,0.00,,---,0.00,VWS V14.00,2013-01-28 19:42:00,
2013-01-28 13:47:00,72.4,62.9,29.83,SSW,207,9.0,9.0,72,0.00,,---,0.00,VWS V14.00,2013-01-28 19:47:00,
2013-01-28 13:52:00,72.9,63.0,29.83,SE,138,9.0,15.0,71,0.00,,---,0.00,VWS V14.00,2013-01-28 19:52:00,
2013-01-28 13:57:00,73.4,63.0,29.83,SSW,193,7.0,11.0,70,0.00,,---,0.00,VWS V14.00,2013-01-28 19:57:00,
2013-01-28 14:02:00,73.6,62.8,29.83,South,186,14.0,15.0,69,0.00,,---,0.00,VWS V14.00,2013-01-28 20:02:00,
2013-01-28 14:07:00,73.7,62.5,29.83,SW,217,8.0,12.0,68,0.00,,---,0.00,VWS V14.00,2013-01-28 20:07:00,
2013-01-28 14:12:00,74.0,62.8,29.82,SE,140,10.0,17.0,68,0.00,,---,0.00,VWS V14.00,2013-01-28 20:12:00,
2013-01-28 14:17:00,73.6,62.4,29.82,SE,135,9.0,11.0,68,0.00,,---,0.00,VWS V14.00,2013-01-28 20:17:00,
2013-01-28 14:22:00,73.4,62.6,29.82,SE,132,11.0,12.0,69,0.00,,---,0.00,VWS V14.00,2013-01-28 20:22:00,
2013-01-28 14:27:00,73.3,62.5,29.82,SSE,153,5.0,14.0,69,0.00,,---,0.00,VWS V14.00,2013-01-28 20:27:00,
2013-01-28 14:33:00,73.5,62.7,29.82,SW,217,9.0,14.0,69,0.00,,---,0.00,VWS V14.00,2013-01-28 20:33:00,
2013-01-28 14:38:00,73.6,62.4,29.82,South,169,9.0,14.0,68,0.00,,---,0.00,VWS V14.00,2013-01-28 20:38:00,
2013-01-28 14:43:00,73.7,62.5,29.82,ESE,112,12.0,16.0,68,0.00,,---,0.00,VWS V14.00,2013-01-28 20:43:00,
2013-01-28 14:48:00,73.7,62.5,29.82,South,184,0.0,6.0,68,0.00,,---,0.00,VWS V14.00,2013-01-28 20:48:00,
2013-01-28 14:53:00,73.9,62.7,29.82,SSE,152,3.0,11.0,68,0.00,,---,0.00,VWS V14.00,2013-01-28 20:53:00,
2013-01-28 14:58:00,73.9,62.7,29.82,ESE,109,6.0,13.0,68,0.00,,---,0.00,VWS V14.00,2013-01-28 20:58:00,
2013-01-28 15:03:00,73.9,62.7,29.82,SSE,157,1.0,16.0,68,0.00,,---,0.00,VWS V14.00,2013-01-28 21:03:00,
2013-01-28 15:08:00,73.9,62.3,29.82,SE,131,15.0,21.0,67,0.00,,---,0.00,VWS V14.00,2013-01-28 21:08:00,
2013-01-28 15:13:00,73.8,62.2,29.81,ESE,117,7.0,16.0,67,0.00,,---,0.00,VWS V14.00,2013-01-28 21:13:00,
2013-01-28 15:18:00,73.9,62.3,29.81,South,187,8.0,11.0,67,0.00,,---,0.00,VWS V14.00,2013-01-28 21:18:00,
2013-01-28 15:23:00,73.8,62.6,29.81,SSW,192,3.0,12.0,68,0.00,,---,0.00,VWS V14.00,2013-01-28 21:23:00,
2013-01-28 15:28:00,73.9,62.7,29.81,ESE,115,12.0,13.0,68,0.00,,---,0.00,VWS V14.00,2013-01-28 21:28:00,
2013-01-28 15:33:00,73.8,62.6,29.81,South,176,3.0,16.0,68,0.00,,---,0.00,VWS V14.00,2013-01-28 21:33:00,
2013-01-28 15:38:00,73.7,62.5,29.81,South,191,4.0,10.0,68,0.00,,---,0.00,VWS V14.00,2013-01-28 21:38:00,
2013-01-28 15:43:00,73.6,62.4,29.81,SSW,195,7.0,19.0,68,0.00,,---,0.00,VWS V14.00,2013-01-28 21:43:00,
2013-01-28 15:48:00,73.5,62.7,29.81,SSE,158,13.0,22.0,69,0.00,,---,0.00,VWS V14.00,2013-01-28 21:48:00,
2013-01-28 15:53:00,73.5,62.7,29.81,SSW,200,6.0,11.0,69,0.00,,---,0.00,VWS V14.00,2013-01-28 21:53:00,
2013-01-28 15:58:00,73.4,62.6,29.81,SSW,197,8.0,14.0,69,0.00,,---,0.00,VWS V14.00,2013-01-28 21:58:00,
2013-01-28 16:03:00,73.4,62.6,29.81,SSE,160,0.0,13.0,69,0.00,,---,0.00,VWS V14.00,2013-01-28 22:03:00,
2013-01-28 16:08:00,73.4,62.6,29.81,ESE,123,12.0,19.0,69,0.00,,---,0.00,VWS V14.00,2013-01-28 22:08:00,
2013-01-28 16:13:00,73.2,62.8,29.80,SSE,155,0.0,14.0,70,0.00,,---,0.00,VWS V14.00,2013-01-28 22:13:00,
2013-01-28 16:18:00,73.0,62.7,29.80,South,174,11.0,14.0,70,0.00,,---,0.00,VWS V14.00,2013-01-28 22:18:00,
2013-01-28 16:23:00,72.8,62.5,29.80,SSE,167,3.0,17.0,70,0.00,,---,0.00,VWS V14.00,2013-01-28 22:23:00,
2013-01-28 16:28:00,72.7,62.8,29.80,SE,143,14.0,14.0,71,0.00,,---,0.00,VWS V14.00,2013-01-28 22:28:00,
2013-01-28 16:33:00,72.7,62.8,29.80,SSE,164,1.0,16.0,71,0.00,,---,0.00,VWS V14.00,2013-01-28 22:33:00,
2013-01-28 16:38:00,72.6,62.7,29.80,SSE,166,0.0,11.0,71,0.00,,---,0.00,VWS V14.00,2013-01-28 22:38:00,
2013-01-28 16:44:00,72.6,62.7,29.80,SE,126,3.0,7.0,71,0.00,,---,0.00,VWS V14.00,2013-01-28 22:44:00,
2013-01-28 16:49:00,72.5,62.6,29.80,South,182,0.0,11.0,71,0.00,,---,0.00,VWS V14.00,2013-01-28 22:49:00,
2013-01-28 16:54:00,72.5,63.0,29.80,ESE,115,6.0,7.0,72,0.00,,---,0.00,VWS V14.00,2013-01-28 22:54:00,
2013-01-28 16:59:00,72.3,62.8,29.80,SE,125,9.0,9.0,72,0.00,,---,0.00,VWS V14.00,2013-01-28 22:59:00,
2013-01-28 17:04:00,72.1,63.0,29.80,SSE,149,5.0,16.0,73,0.00,,---,0.00,VWS V14.00,2013-01-28 23:04:00,
2013-01-28 17:09:00,71.9,63.2,29.80,ESE,118,15.0,20.0,74,0.00,,---,0.00,VWS V14.00,2013-01-28 23:09:00,
2013-01-28 17:14:00,71.7,63.0,29.80,SSE,167,3.0,12.0,74,0.00,,---,0.00,VWS V14.00,2013-01-28 23:14:00,
2013-01-28 17:19:00,71.6,63.3,29.80,SE,128,5.0,11.0,75,0.00,,---,0.00,VWS V14.00,2013-01-28 23:19:00,
2013-01-28 17:25:00,71.3,63.0,29.80,South,169,5.0,10.0,75,0.00,,---,0.00,VWS V14.00,2013-01-28 23:25:00,
2013-01-28 17:30:00,71.2,63.3,29.80,SE,129,9.0,16.0,76,0.00,,---,0.00,VWS V14.00,2013-01-28 23:30:00,
2013-01-28 17:35:00,71.1,63.2,29.80,South,174,0.0,10.0,76,0.00,,---,0.00,VWS V14.00,2013-01-28 23:35:00,
2013-01-28 17:40:00,70.9,63.3,29.79,SSW,197,9.0,14.0,77,0.00,,---,0.00,VWS V14.00,2013-01-28 23:40:00,
2013-01-28 17:46:00,70.7,63.1,29.79,SE,144,6.0,18.0,77,0.00,,---,0.00,VWS V14.00,2013-01-28 23:46:00,
2013-01-28 17:52:00,70.5,63.3,29.79,ESE,115,19.0,19.0,78,0.00,,---,0.00,VWS V14.00,2013-01-28 23:52:00,
2013-01-28 17:57:00,70.3,63.1,29.79,South,176,7.0,18.0,78,0.00,,---,0.00,VWS V14.00,2013-01-28 23:57:00,
2013-01-28 18:02:00,70.2,63.4,29.79,SSE,158,14.0,15.0,79,0.00,,---,0.00,VWS V14.00,2013-01-29 00:02:00,
2013-01-28 18:07:00,70.1,63.3,29.79,SSE,152,1.0,15.0,79,0.00,,---,0.00,VWS V14.00,2013-01-29 00:07:00,
2013-01-28 18:12:00,70.0,63.2,29.80,SSW,194,3.0,16.0,79,0.00,,---,0.00,VWS V14.00,2013-01-29 00:12:00,
2013-01-28 18:17:00,69.9,63.1,29.80,SE,131,5.0,9.0,79,0.00,,---,0.00,VWS V14.00,2013-01-29 00:17:00,
2013-01-28 18:22:00,69.8,63.4,29.80,South,176,6.0,13.0,80,0.00,,---,0.00,VWS V14.00,2013-01-29 00:22:00,
2013-01-28 18:27:00,69.8,63.4,29.80,SE,133,15.0,19.0,80,0.00,,---,0.00,VWS V14.00,2013-01-29 00:27:00,
2013-01-28 18:32:00,69.8,63.4,29.80,SE,142,11.0,17.0,80,0.00,,---,0.00,VWS V14.00,2013-01-29 00:32:00,
2013-01-28 18:37:00,69.7,63.3,29.80,ESE,120,9.0,10.0,80,0.00,,---,0.00,VWS V14.00,2013-01-29 00:37:00,
2013-01-28 18:42:00,69.6,63.5,29.80,SE,131,11.0,19.0,81,0.00,,---,0.00,VWS V14.00,2013-01-29 00:42:00,
2013-01-28 18:47:00,69.5,63.4,29.80,SSE,150,1.0,18.0,81,0.00,,---,0.00,VWS V14.00,2013-01-29 00:47:00,
2013-01-28 18:52:00,69.5,63.4,29.80,SSE,147,1.0,14.0,81,0.00,,---,0.00,VWS V14.00,2013-01-29 00:52:00,
2013-01-28 18:57:00,69.3,63.2,29.80,SE,129,15.0,15.0,81,0.00,,---,0.00,VWS V14.00,2013-01-29 00:57:00,
2013-01-28 19:02:00,69.1,63.0,29.80,SE,133,3.0,6.0,81,0.00,,---,0.00,VWS V14.00,2013-01-29 01:02:00,
2013-01-28 19:08:00,69.1,63.4,29.80,SE,126,11.0,11.0,82,0.00,,---,0.00,VWS V14.00,2013-01-29 01:08:00,
2013-01-28 19:13:00,69.0,63.3,29.80,SE,127,12.0,14.0,82,0.00,,---,0.00,VWS V14.00,2013-01-29 01:13:00,
2013-01-28 19:18:00,69.0,63.3,29.80,SE,124,2.0,11.0,82,0.00,,---,0.00,VWS V14.00,2013-01-29 01:18:00,
2013-01-28 19:24:00,69.2,63.5,29.80,SSE,151,1.0,16.0,82,0.00,,---,0.00,VWS V14.00,2013-01-29 01:24:00,
2013-01-28 19:29:00,69.1,63.4,29.80,SSE,152,5.0,12.0,82,0.00,,---,0.00,VWS V14.00,2013-01-29 01:29:00,
2013-01-28 19:34:00,69.0,63.3,29.80,SSE,167,0.0,16.0,82,0.00,,---,0.00,VWS V14.00,2013-01-29 01:34:00,
2013-01-28 19:39:00,68.9,63.2,29.80,South,177,1.0,7.0,82,0.00,,---,0.00,VWS V14.00,2013-01-29 01:39:00,
2013-01-28 19:44:00,68.7,63.0,29.79,SE,141,5.0,16.0,82,0.00,,---,0.00,VWS V14.00,2013-01-29 01:44:00,
2013-01-28 19:49:00,68.7,63.0,29.79,ESE,120,5.0,12.0,82,0.00,,---,0.00,VWS V14.00,2013-01-29 01:49:00,
2013-01-28 19:54:00,68.7,63.3,29.79,SE,133,11.0,13.0,83,0.00,,---,0.00,VWS V14.00,2013-01-29 01:54:00,
2013-01-28 19:59:00,68.8,63.1,29.79,SE,130,10.0,16.0,82,0.00,,---,0.00,VWS V14.00,2013-01-29 01:59:00,
2013-01-28 20:04:00,68.8,63.1,29.79,SSE,167,4.0,10.0,82,0.00,,---,0.00,VWS V14.00,2013-01-29 02:04:00,
2013-01-28 20:09:00,68.8,63.4,29.79,SSE,168,4.0,15.0,83,0.00,,---,0.00,VWS V14.00,2013-01-29 02:09:00,
2013-01-28 20:14:00,68.8,63.4,29.79,South,169,1.0,13.0,83,0.00,,---,0.00,VWS V14.00,2013-01-29 02:14:00,
2013-01-28 20:19:00,68.8,63.1,29.79,South,170,0.0,14.0,82,0.00,,---,0.00,VWS V14.00,2013-01-29 02:19:00,
2013-01-28 20:24:00,68.9,63.2,29.79,SE,137,10.0,10.0,82,0.00,,---,0.00,VWS V14.00,2013-01-29 02:24:00,
2013-01-28 20:29:00,68.9,63.2,29.78,SSE,148,4.0,13.0,82,0.00,,---,0.00,VWS V14.00,2013-01-29 02:29:00,
2013-01-28 20:34:00,68.9,63.2,29.78,ESE,115,16.0,18.0,82,0.00,,---,0.00,VWS V14.00,2013-01-29 02:34:00,
2013-01-28 20:39:00,68.9,63.2,29.78,SSE,153,6.0,10.0,82,0.00,,---,0.00,VWS V14.00,2013-01-29 02:39:00,
2013-01-28 20:44:00,68.9,63.2,29.78,SSE,163,7.0,17.0,82,0.00,,---,0.00,VWS V14.00,2013-01-29 02:44:00,
2013-01-28 20:49:00,68.9,63.2,29.78,SE,137,0.0,12.0,82,0.00,,---,0.00,VWS V14.00,2013-01-29 02:49:00,
2013-01-28 20:54:00,68.9,63.2,29.78,SE,146,10.0,21.0,82,0.00,,---,0.00,VWS V14.00,2013-01-29 02:54:00,
2013-01-28 20:59:00,68.9,63.2,29.78,South,185,0.0,7.0,82,0.00,,---,0.00,VWS V14.00,2013-01-29 02:59:00,
2013-01-28 21:04:00,68.9,63.2,29.78,SSE,155,0.0,7.0,82,0.00,,---,0.00,VWS V14.00,2013-01-29 03:04:00,
2013-01-28 21:09:00,69.0,63.3,29.78,SE,131,11.0,14.0,82,0.00,,---,0.00,VWS V14.00,2013-01-29 03:09:00,
2013-01-28 21:14:00,69.1,63.4,29.77,SSE,161,15.0,17.0,82,0.00,,---,0.00,VWS V14.00,2013-01-29 03:14:00,
2013-01-28 21:19:00,69.3,63.6,29.77,SE,131,7.0,19.0,82,0.00,,---,0.00,VWS V14.00,2013-01-29 03:19:00,
2013-01-28 21:24:00,69.4,63.7,29.77,SSE,150,13.0,18.0,82,0.00,,---,0.00,VWS V14.00,2013-01-29 03:24:00,
2013-01-28 21:29:00,69.3,63.6,29.78,SSE,148,5.0,17.0,82,0.00,,---,0.00,VWS V14.00,2013-01-29 03:29:00,
2013-01-28 21:35:00,69.4,63.7,29.78,SSE,160,13.0,20.0,82,0.00,,---,0.00,VWS V14.00,2013-01-29 03:35:00,
2013-01-28 21:40:00,69.4,63.3,29.78,SSE,158,0.0,17.0,81,0.00,,---,0.00,VWS V14.00,2013-01-29 03:40:00,
2013-01-28 21:45:00,69.5,63.4,29.78,SE,127,7.0,16.0,81,0.00,,---,0.00,VWS V14.00,2013-01-29 03:45:00,
2013-01-28 21:51:00,69.3,63.2,29.78,South,172,0.0,9.0,81,0.00,,---,0.00,VWS V14.00,2013-01-29 03:51:00,
2013-01-28 21:56:00,69.1,63.4,29.78,SSE,165,0.0,12.0,82,0.00,,---,0.00,VWS V14.00,2013-01-29 03:56:00,
2013-01-28 22:01:00,68.9,63.2,29.78,SSE,162,5.0,15.0,82,0.00,,---,0.00,VWS V14.00,2013-01-29 04:01:00,
2013-01-28 22:06:00,68.7,63.0,29.78,SE,135,9.0,16.0,82,0.00,,---,0.00,VWS V14.00,2013-01-29 04:06:00,
2013-01-28 22:11:00,68.5,63.1,29.77,SE,144,11.0,16.0,83,0.00,,---,0.00,VWS V14.00,2013-01-29 04:11:00,
2013-01-28 22:16:00,68.5,63.1,29.77,SE,143,0.0,13.0,83,0.00,,---,0.00,VWS V14.00,2013-01-29 04:16:00,
2013-01-28 22:21:00,68.5,63.1,29.77,SSE,167,0.0,10.0,83,0.00,,---,0.00,VWS V14.00,2013-01-29 04:21:00,
2013-01-28 22:26:00,68.4,63.0,29.78,South,190,0.0,6.0,83,0.00,,---,0.00,VWS V14.00,2013-01-29 04:26:00,
2013-01-28 22:31:00,68.3,62.9,29.78,South,180,2.0,9.0,83,0.00,,---,0.00,VWS V14.00,2013-01-29 04:31:00,
2013-01-28 22:36:00,68.3,62.9,29.78,SSW,193,7.0,14.0,83,0.00,,---,0.00,VWS V14.00,2013-01-29 04:36:00,
2013-01-28 22:41:00,68.4,63.0,29.77,SE,139,6.0,13.0,83,0.00,,---,0.00,VWS V14.00,2013-01-29 04:41:00,
2013-01-28 22:46:00,68.4,63.0,29.77,SE,134,6.0,13.0,83,0.00,,---,0.00,VWS V14.00,2013-01-29 04:46:00,
2013-01-28 22:51:00,68.5,63.1,29.77,SE,127,6.0,12.0,83,0.00,,---,0.00,VWS V14.00,2013-01-29 04:51:00,
2013-01-28 22:52:00,68.3,62.9,29.77,South,177,7.0,15.0,83,0.00,,---,0.00,VWS V14.00,2013-01-29 04:52:00,
2013-01-28 22:53:00,68.5,62.8,29.77,SE,129,16.0,16.0,82,0.00,,---,0.00,VWS V14.00,2013-01-29 04:53:00,
2013-01-28 22:54:00,68.5,63.1,29.77,South,188,0.0,18.0,83,0.00,,---,0.00,VWS V14.00,2013-01-29 04:54:00,
2013-01-28 22:55:00,68.4,62.7,29.77,SE,136,3.0,6.0,82,0.00,,---,0.00,VWS V14.00,2013-01-29 04:55:00,
2013-01-28 22:56:00,68.4,63.0,29.77,SSE,162,7.0,11.0,83,0.00,,---,0.00,VWS V14.00,2013-01-29 04:56:00,
2013-01-28 22:57:00,68.4,63.0,29.77,SSW,196,4.0,14.0,83,0.00,,---,0.00,VWS V14.00,2013-01-29 04:57:00,
2013-01-28 22:58:00,68.4,63.0,29.77,SE,139,14.0,15.0,83,0.00,,---,0.00,VWS V14.00,2013-01-29 04:58:00,
2013-01-28 22:59:00,68.4,63.0,29.77,ESE,113,14.0,15.0,83,0.00,,---,0.00,VWS V14.00,2013-01-29 04:59:00,
2013-01-28 23:00:00,68.3,62.9,29.76,South,181,5.0,16.0,83,0.00,,---,0.00,VWS V14.00,2013-01-29 05:00:00,
2013-01-28 23:01:00,68.3,62.9,29.76,SSE,167,2.0,12.0,83,0.00,,---,0.00,VWS V14.00,2013-01-29 05:01:00,
2013-01-28 23:02:00,68.3,62.9,29.76,SE,125,4.0,11.0,83,0.00,,---,0.00,VWS V14.00,2013-01-29 05:02:00,
2013-01-28 23:03:00,68.3,62.9,29.76,South,182,10.0,14.0,83,0.00,,---,0.00,VWS V14.00,2013-01-29 05:03:00,
2013-01-28 23:04:00,68.3,62.9,29.76,SSE,161,5.0,10.0,83,0.00,,---,0.00,VWS V14.00,2013-01-29 05:04:00,
2013-01-28 23:05:00,68.3,62.9,29.76,South,177,0.0,5.0,83,0.00,,---,0.00,VWS V14.00,2013-01-29 05:05:00,
2013-01-28 23:06:00,68.3,62.9,29.76,SE,146,5.0,10.0,83,0.00,,---,0.00,VWS V14.00,2013-01-29 05:06:00,
2013-01-28 23:07:00,68.2,62.8,29.76,SSE,159,0.0,5.0,83,0.00,,---,0.00,VWS V14.00,2013-01-29 05:07:00,
2013-01-28 23:08:00,68.2,62.8,29.76,SE,126,12.0,15.0,83,0.00,,---,0.00,VWS V14.00,2013-01-29 05:08:00,
2013-01-28 23:09:00,68.2,62.8,29.76,SE,136,10.0,18.0,83,0.00,,---,0.00,VWS V14.00,2013-01-29 05:09:00,
2013-01-28 23:10:00,68.2,62.8,29.76,SE,142,5.0,12.0,83,0.00,,---,0.00,VWS V14.00,2013-01-29 05:10:00,
2013-01-28 23:11:00,68.2,62.8,29.76,SE,146,6.0,17.0,83,0.00,,---,0.00,VWS V14.00,2013-01-29 05:11:00,
2013-01-28 23:12:00,68.3,62.9,29.76,ESE,105,0.0,10.0,83,0.00,,---,0.00,VWS V14.00,2013-01-29 05:12:00,
2013-01-28 23:13:00,68.3,62.9,29.76,SSW,204,13.0,17.0,83,0.00,,---,0.00,VWS V14.00,2013-01-29 05:13:00,
2013-01-28 23:14:00,68.3,62.9,29.76,ESE,120,10.0,13.0,83,0.00,,---,0.00,VWS V14.00,2013-01-29 05:14:00,
2013-01-28 23:15:00,68.3,62.9,29.76,SE,126,7.0,12.0,83,0.00,,---,0.00,VWS V14.00,2013-01-29 05:15:00,
2013-01-28 23:16:00,68.3,62.6,29.76,ESE,113,7.0,13.0,82,0.00,,---,0.00,VWS V14.00,2013-01-29 05:16:00,
2013-01-28 23:17:00,68.3,62.6,29.76,SE,129,4.0,13.0,82,0.00,,---,0.00,VWS V14.00,2013-01-29 05:17:00,
2013-01-28 23:18:00,68.3,62.6,29.76,ESE,110,5.0,13.0,82,0.00,,---,0.00,VWS V14.00,2013-01-29 05:18:00,
2013-01-28 23:19:00,68.3,62.6,29.76,SE,131,7.0,14.0,82,0.00,,---,0.00,VWS V14.00,2013-01-29 05:19:00,
2013-01-28 23:20:00,68.3,62.6,29.76,SSE,152,9.0,13.0,82,0.00,,---,0.00,VWS V14.00,2013-01-29 05:20:00,
2013-01-28 23:21:00,68.3,62.6,29.76,South,172,2.0,12.0,82,0.00,,---,0.00,VWS V14.00,2013-01-29 05:21:00,
2013-01-28 23:22:00,68.3,62.6,29.76,SE,127,0.0,11.0,82,0.00,,---,0.00,VWS V14.00,2013-01-29 05:22:00,
2013-01-28 23:23:00,68.3,62.6,29.76,SSE,155,0.0,11.0,82,0.00,,---,0.00,VWS V14.00,2013-01-29 05:23:00,
2013-01-28 23:24:00,68.3,62.6,29.76,SSE,168,0.0,7.0,82,0.00,,---,0.00,VWS V14.00,2013-01-29 05:24:00,
2013-01-28 23:25:00,68.3,62.6,29.76,South,182,2.0,2.0,82,0.00,,---,0.00,VWS V14.00,2013-01-29 05:25:00,
2013-01-28 23:26:00,68.3,62.6,29.76,SSW,207,1.0,6.0,82,0.00,,---,0.00,VWS V14.00,2013-01-29 05:26:00,
2013-01-28 23:27:00,68.3,62.6,29.76,SSW,200,0.0,11.0,82,0.00,,---,0.00,VWS V14.00,2013-01-29 05:27:00,
2013-01-28 23:28:00,68.3,62.6,29.76,SSE,150,11.0,16.0,82,0.00,,---,0.00,VWS V14.00,2013-01-29 05:28:00,
2013-01-28 23:29:00,68.3,62.6,29.76,SSE,162,0.0,11.0,82,0.00,,---,0.00,VWS V14.00,2013-01-29 05:29:00,
2013-01-28 23:30:00,68.3,62.6,29.76,SE,129,1.0,1.0,82,0.00,,---,0.00,VWS V14.00,2013-01-29 05:30:00,
2013-01-28 23:31:00,68.3,62.6,29.76,SE,139,9.0,19.0,82,0.00,,---,0.00,VWS V14.00,2013-01-29 05:31:00,
2013-01-28 23:32:00,68.4,62.7,29.76,ESE,120,1.0,15.0,82,0.00,,---,0.00,VWS V14.00,2013-01-29 05:32:00,
2013-01-28 23:33:00,68.4,62.7,29.76,SSE,148,3.0,8.0,82,0.00,,---,0.00,VWS V14.00,2013-01-29 05:33:00,
2013-01-28 23:34:00,68.4,62.7,29.76,SE,133,12.0,13.0,82,0.00,,---,0.00,VWS V14.00,2013-01-29 05:34:00,
2013-01-28 23:35:00,68.4,62.3,29.76,South,174,7.0,14.0,81,0.00,,---,0.00,VWS V14.00,2013-01-29 05:35:00,
2013-01-28 23:36:00,68.5,62.5,29.76,South,178,0.0,7.0,81,0.00,,---,0.00,VWS V14.00,2013-01-29 05:36:00,
2013-01-28 23:37:00,68.4,62.3,29.76,SE,129,1.0,7.0,81,0.00,,---,0.00,VWS V14.00,2013-01-29 05:37:00,
2013-01-28 23:38:00,68.4,62.3,29.76,South,175,0.0,9.0,81,0.00,,---,0.00,VWS V14.00,2013-01-29 05:38:00,
2013-01-28 23:39:00,68.4,62.3,29.76,SSE,151,0.0,9.0,81,0.00,,---,0.00,VWS V14.00,2013-01-29 05:39:00,
2013-01-28 23:40:00,68.5,62.5,29.76,SSE,164,0.0,11.0,81,0.00,,---,0.00,VWS V14.00,2013-01-29 05:40:00,
2013-01-28 23:42:00,68.5,62.5,29.76,SE,131,10.0,11.0,81,0.00,,---,0.00,VWS V14.00,2013-01-29 05:42:00,
2013-01-28 23:44:00,68.5,62.5,29.76,South,171,2.0,12.0,81,0.00,,---,0.00,VWS V14.00,2013-01-29 05:44:00,
2013-01-28 23:45:00,68.6,62.5,29.76,South,169,3.0,12.0,81,0.00,,---,0.00,VWS V14.00,2013-01-29 05:45:00,
2013-01-28 23:46:00,68.6,62.5,29.76,SSE,148,0.0,3.0,81,0.00,,---,0.00,VWS V14.00,2013-01-29 05:46:00,
2013-01-28 23:47:00,68.6,62.5,29.76,South,188,0.0,14.0,81,0.00,,---,0.00,VWS V14.00,2013-01-29 05:47:00,
2013-01-28 23:48:00,68.6,62.5,29.76,South,190,4.0,13.0,81,0.00,,---,0.00,VWS V14.00,2013-01-29 05:48:00,
2013-01-28 23:49:00,68.6,62.5,29.76,SE,139,0.0,6.0,81,0.00,,---,0.00,VWS V14.00,2013-01-29 05:49:00,
2013-01-28 23:50:00,68.6,62.5,29.76,SSE,149,9.0,17.0,81,0.00,,---,0.00,VWS V14.00,2013-01-29 05:50:00,
2013-01-28 23:51:00,68.5,62.5,29.76,SSE,158,0.0,12.0,81,0.00,,---,0.00,VWS V14.00,2013-01-29 05:51:00,
2013-01-28 23:52:00,68.7,62.6,29.76,SE,135,0.0,8.0,81,0.00,,---,0.00,VWS V14.00,2013-01-29 05:52:00,
2013-01-28 23:53:00,68.7,62.6,29.76,SSE,164,10.0,10.0,81,0.00,,---,0.00,VWS V14.00,2013-01-29 05:53:00,
2013-01-28 23:54:00,68.7,62.6,29.76,SE,139,10.0,11.0,81,0.00,,---,0.00,VWS V14.00,2013-01-29 05:54:00,
2013-01-28 23:56:00,68.7,62.3,29.76,SSE,164,2.0,11.0,80,0.00,,---,0.00,VWS V14.00,2013-01-29 05:56:00,
2013-01-28 23:58:00,68.8,62.4,29.76,ESE,123,14.0,14.0,80,0.00,,---,0.00,VWS V14.00,2013-01-29 05:58:00,